Time;durP1;ratioP1;P1;durP2;ratioP2;P2;SDS_P1;SDS_P2;PMS_P1;PMS_P2;Temp;Humidity;BMP_temperature;BMP_pressure;BME280_temperature;BME280_humidity;BME280_pressure;Samples;Min_cycle;Max_cycle;Signal;HPM_P1;HPM_P2
2022/10/04 00:01:19;;;;;;;;;;;;;;;;;;5032057;28;791;-73
2022/10/04 00:03:48;;;;;;;;;;;;;;;;;;5032371;28;1123;-74
2022/10/04 00:06:15;;;;;;;;;;;;;;;;;;5032239;28;2306;-74
2022/10/04 00:08:42;;;;;;;;;;;;;;;;;;5032412;28;1072;-74
2022/10/04 00:11:14;;;;;;;;;;;;;;;;;;5030702;28;1304;-74
2022/10/04 00:13:40;;;;;;;;;;;;;;;;;;5032072;28;963;-76
2022/10/04 00:16:06;;;;;;;;;;;;;;;;;;5032068;28;1419;-75
2022/10/04 00:18:37;;;;;;;;;;;;;;;;;;5032251;28;894;-75
2022/10/04 00:21:06;;;;;;;;;;;;;;;;;;5031576;28;1095;-73
2022/10/04 00:23:42;;;;;;;;;;;;;;;;;;5031795;28;942;-74
2022/10/04 00:26:11;;;;;;;;;;;;;;;;;;5031622;28;1914;-74
2022/10/04 00:28:44;;;;;;;;;;;;;;;;;;5031840;28;1056;-73
2022/10/04 00:31:12;;;;;;;;;;;;;;;;;;5030505;28;1159;-73
2022/10/04 00:33:39;;;;;;;;;;;;;;;;;;5031542;28;978;-73
2022/10/04 00:36:24;;;;;;;;;;;;;;;;;;5030256;28;1356;-72
2022/10/04 00:39:03;;;;;;;;;;;;;;;;;;5031733;28;1087;-73
2022/10/04 00:41:29;;;;;;;;;;;;;;;;;;5030188;28;1447;-74
2022/10/04 00:43:55;;;;;;;;;;;;;;;;;;5031678;28;1297;-73
2022/10/04 00:46:22;;;;;;;;;;;;;;;;;;5030181;28;1919;-73
2022/10/04 00:48:49;;;;;;;;;;;;;;;;;;5031396;28;882;-76
2022/10/04 00:51:19;;;;;;;;;;;;;;;;;;5030978;28;1080;-75
2022/10/04 00:53:48;;;;;;;;;;;;;;;;;;5031512;28;1092;-74
2022/10/04 00:56:17;;;;;;;;;;;;;;;;;;5031401;28;953;-75
2022/10/04 00:58:45;;;;;;;;;;;;;;;;;;5031339;28;1075;-75
2022/10/04 01:01:11;;;;;;;;;;;;;;;;;;5031273;28;1064;-73
2022/10/04 01:03:38;;;;;;;;;;;;;;;;;;5029941;28;1271;-76
2022/10/04 01:06:05;;;;;;;;;;;;;;;;;;5031352;28;1984;-76
2022/10/04 01:08:31;;;;;;;;;;;;;;;;;;5030070;28;1048;-74
2022/10/04 01:10:58;;;;;;;;;;;;;;;;;;5031237;28;783;-74
2022/10/04 01:13:27;;;;;;;;;;;;;;;;;;5030853;28;1239;-74
2022/10/04 01:15:54;;;;;;;;;;;;;;;;;;5031134;28;1372;-74
2022/10/04 01:18:30;;;;;;;;;;;;;;;;;;5031224;28;1067;-74
2022/10/04 01:20:58;;;;;;;;;;;;;;;;;;5031211;28;814;-75
2022/10/04 01:23:40;;;;;;;;;;;;;;;;;;5030789;28;1059;-74
2022/10/04 01:26:28;;;;;;;;;;;;;;;;;;5030714;28;1906;-74
2022/10/04 01:28:55;;;;;;;;;;;;;;;;;;5029655;28;1203;-74
2022/10/04 01:31:21;;;;;;;;;;;;;;;;;;5030855;28;961;-74
2022/10/04 01:33:48;;;;;;;;;;;;;;;;;;5033596;28;889;-75
2022/10/04 01:36:14;;;;;;;;;;;;;;;;;;5035009;28;1079;-75
2022/10/04 01:38:40;;;;;;;;;;;;;;;;;;5033580;28;2210;-74
2022/10/04 01:41:08;;;;;;;;;;;;;;;;;;5034974;28;1096;-74
2022/10/04 01:43:35;;;;;;;;;;;;;;;;;;5034709;28;968;-74
2022/10/04 01:46:03;;;;;;;;;;;;;;;;;;5034763;28;1981;-74
2022/10/04 01:48:31;;;;;;;;;;;;;;;;;;5034822;28;1088;-74
2022/10/04 01:50:58;;;;;;;;;;;;;;;;;;5034700;28;997;-74
2022/10/04 01:53:26;;;;;;;;;;;;;;;;;;5034465;28;1429;-75
2022/10/04 01:55:53;;;;;;;;;;;;;;;;;;5033381;28;1317;-75
2022/10/04 01:58:21;;;;;;;;;;;;;;;;;;5034665;28;1049;-74
2022/10/04 02:00:49;;;;;;;;;;;;;;;;;;5034714;28;1160;-73
2022/10/04 02:03:16;;;;;;;;;;;;;;;;;;5034145;28;839;-74
2022/10/04 02:05:45;;;;;;;;;;;;;;;;;;5034442;28;1305;-75
2022/10/04 02:08:11;;;;;;;;;;;;;;;;;;5034273;28;1983;-74
2022/10/04 02:10:38;;;;;;;;;;;;;;;;;;5034604;28;781;-75
2022/10/04 02:13:05;;;;;;;;;;;;;;;;;;5033015;28;1272;-73
2022/10/04 02:15:32;;;;;;;;;;;;;;;;;;5033091;28;1420;-74
2022/10/04 02:17:59;;;;;;;;;;;;;;;;;;5033193;28;957;-74
2022/10/04 02:20:26;;;;;;;;;;;;;;;;;;5033019;28;1225;-74
2022/10/04 02:22:53;;;;;;;;;;;;;;;;;;5032874;28;1188;-74
2022/10/04 02:25:19;;;;;;;;;;;;;;;;;;5034238;28;1314;-74
2022/10/04 02:27:46;;;;;;;;;;;;;;;;;;5034156;28;1973;-73
2022/10/04 02:30:13;;;;;;;;;;;;;;;;;;5034076;28;1080;-74
2022/10/04 02:32:59;;;;;;;;;;;;;;;;;;5033729;28;1114;-74
2022/10/04 02:35:27;;;;;;;;;;;;;;;;;;5033675;28;1323;-74
2022/10/04 02:37:54;;;;;;;;;;;;;;;;;;5032805;28;1360;-73
2022/10/04 02:40:21;;;;;;;;;;;;;;;;;;5033802;28;1092;-74
2022/10/04 02:42:49;;;;;;;;;;;;;;;;;;5032323;28;1153;-74
2022/10/04 02:45:16;;;;;;;;;;;;;;;;;;5033498;28;1310;-74
2022/10/04 02:47:44;;;;;;;;;;;;;;;;;;5033900;28;1970;-74
2022/10/04 02:50:16;;;;;;;;;;;;;;;;;;5033534;28;1002;-74
2022/10/04 02:52:43;;;;;;;;;;;;;;;;;;5033433;28;965;-74
2022/10/04 02:55:10;;;;;;;;;;;;;;;;;;5056604;22;3716;-72
2022/10/04 02:57:37;;;;;;;;;;;;;;;;;;5053317;28;1072;-71
2022/10/04 03:00:07;;;;;;;;;;;;;;;;;;5053749;28;1058;-72
2022/10/04 03:02:33;;;;;;;;;;;;;;;;;;5053075;28;1075;-71
2022/10/04 03:05:07;;;;;;;;;;;;;;;;;;5043780;28;1344;-72
2022/10/04 03:07:34;;;;;;;;;;;;;;;;;;5073208;28;1918;-72
2022/10/04 03:10:00;;;;;;;;;;;;;;;;;;5073444;28;984;-71
2022/10/04 03:12:26;;;;;;;;;;;;;;;;;;5072743;28;808;-70
2022/10/04 03:14:52;;;;;;;;;;;;;;;;;;5073317;28;1329;-70
2022/10/04 03:17:19;;;;;;;;;;;;;;;;;;5073089;28;984;-70
2022/10/04 03:19:46;;;;;;;;;;;;;;;;;;5073190;28;1072;-71
2022/10/04 03:22:13;;;;;;;;;;;;;;;;;;5072797;28;1071;-71
2022/10/04 03:24:45;;;;;;;;;;;;;;;;;;5073078;28;1369;-71
2022/10/04 03:27:12;;;;;;;;;;;;;;;;;;5073028;28;1967;-72
2022/10/04 03:29:39;;;;;;;;;;;;;;;;;;5072886;28;953;-71
2022/10/04 03:32:05;;;;;;;;;;;;;;;;;;5072650;28;1103;-72
2022/10/04 03:34:33;;;;;;;;;;;;;;;;;;5054669;28;1323;-73
2022/10/04 03:36:59;;;;;;;;;;;;;;;;;;5072806;28;1064;-71
2022/10/04 03:39:28;;;;;;;;;;;;;;;;;;5054654;28;1171;-72
2022/10/04 03:41:57;;;;;;;;;;;;;;;;;;5072362;28;1409;-72
2022/10/04 03:44:23;;;;;;;;;;;;;;;;;;5072380;28;1459;-71
2022/10/04 03:46:49;;;;;;;;;;;;;;;;;;5072662;28;1918;-70
2022/10/04 03:49:17;;;;;;;;;;;;;;;;;;5054299;28;1457;-71
2022/10/04 03:51:44;;;;;;;;;;;;;;;;;;5072103;28;1071;-72
2022/10/04 03:54:10;;;;;;;;;;;;;;;;;;5072354;28;1414;-71
2022/10/04 03:56:38;;;;;;;;;;;;;;;;;;5071542;28;858;-70
2022/10/04 03:59:04;;;;;;;;;;;;;;;;;;5072352;28;976;-71
2022/10/04 04:01:34;;;;;;;;;;;;;;;;;;5071867;28;980;-71
2022/10/04 04:04:01;;;;;;;;;;;;;;;;;;5072126;28;1325;-70
2022/10/04 04:06:28;;;;;;;;;;;;;;;;;;5072389;28;1008;-72
2022/10/04 04:08:54;;;;;;;;;;;;;;;;;;5072302;28;1917;-72
2022/10/04 04:11:22;;;;;;;;;;;;;;;;;;5053844;28;1748;-71
2022/10/04 04:13:50;;;;;;;;;;;;;;;;;;5072159;28;1011;-72
2022/10/04 04:16:17;;;;;;;;;;;;;;;;;;5071730;28;1301;-71
2022/10/04 04:18:44;;;;;;;;;;;;;;;;;;5068569;28;1419;-71
2022/10/04 04:21:11;;;;;;;;;;;;;;;;;;5055409;28;1242;-72
2022/10/04 04:23:38;;;;;;;;;;;;;;;;;;5071226;28;1408;-72
2022/10/04 04:26:11;;;;;;;;;;;;;;;;;;5071716;28;1298;-69
2022/10/04 04:28:38;;;;;;;;;;;;;;;;;;5072819;28;1918;-71
2022/10/04 04:31:06;;;;;;;;;;;;;;;;;;5107460;28;1423;-72
2022/10/04 04:33:34;;;;;;;;;;;;;;;;;;5091418;28;854;-71
2022/10/04 04:36:04;;;;;;;;;;;;;;;;;;5084607;28;1484;-71
2022/10/04 04:38:30;;;;;;;;;;;;;;;;;;5061443;28;1462;-73
2022/10/04 04:40:57;;;;;;;;;;;;;;;;;;5070046;28;1218;-72
2022/10/04 04:43:24;;;;;;;;;;;;;;;;;;5071062;28;921;-72
2022/10/04 04:45:50;;;;;;;;;;;;;;;;;;5063747;28;1423;-72
2022/10/04 04:48:18;;;;;;;;;;;;;;;;;;5069738;28;1914;-72
2022/10/04 04:50:48;;;;;;;;;;;;;;;;;;5049032;28;1205;-72
2022/10/04 04:53:14;;;;;;;;;;;;;;;;;;5065400;28;1398;-73
2022/10/04 04:55:41;;;;;;;;;;;;;;;;;;5071434;28;1561;-72
2022/10/04 04:58:08;;;;;;;;;;;;;;;;;;5069223;28;1174;-72
2022/10/04 05:00:36;;;;;;;;;;;;;;;;;;5069145;28;774;-72
2022/10/04 05:03:03;;;;;;;;;;;;;;;;;;5068902;28;1364;-72
2022/10/04 05:05:31;;;;;;;;;;;;;;;;;;5071649;28;1450;-72
2022/10/04 05:08:03;;;;;;;;;;;;;;;;;;5069265;28;1977;-72
2022/10/04 05:10:30;;;;;;;;;;;;;;;;;;5063567;28;1415;-72
2022/10/04 05:12:58;;;;;;;;;;;;;;;;;;5057768;28;1434;-73
2022/10/04 05:15:25;;;;;;;;;;;;;;;;;;5051022;28;1414;-72
2022/10/04 05:17:51;;;;;;;;;;;;;;;;;;5051000;28;1351;-72
2022/10/04 05:20:17;;;;;;;;;;;;;;;;;;5068060;28;1406;-73
2022/10/04 05:22:45;;;;;;;;;;;;;;;;;;5065355;28;1534;-73
2022/10/04 05:25:14;;;;;;;;;;;;;;;;;;5082290;28;1367;-73
2022/10/04 05:27:41;;;;;;;;;;;;;;;;;;5058849;28;1914;-72
2022/10/04 05:30:08;;;;;;;;;;;;;;;;;;5065487;28;1155;-72
2022/10/04 05:32:37;;;;;;;;;;;;;;;;;;5059529;28;1466;-74
2022/10/04 05:35:10;;;;;;;;;;;;;;;;;;5082527;28;1352;-72
2022/10/04 05:37:52;;;;;;;;;;;;;;;;;;5056623;28;1463;-72
2022/10/04 05:40:29;;;;;;;;;;;;;;;;;;5064475;28;1178;-72
2022/10/04 05:42:57;;;;;;;;;;;;;;;;;;5068618;28;1267;-71
2022/10/04 05:45:24;;;;;;;;;;;;;;;;;;5050731;28;1435;-73
2022/10/04 05:47:51;;;;;;;;;;;;;;;;;;5068497;28;1926;-72
2022/10/04 05:50:18;;;;;;;;;;;;;;;;;;5066685;28;998;-73
2022/10/04 05:52:44;;;;;;;;;;;;;;;;;;5081626;28;1422;-72
2022/10/04 05:55:22;;;;;;;;;;;;;;;;;;5051778;28;1412;-73
2022/10/04 05:57:51;;;;;;;;;;;;;;;;;;5065972;28;1343;-72
2022/10/04 06:00:18;;;;;;;;;;;;;;;;;;5069955;28;1403;-72
2022/10/04 06:02:53;;;;;;;;;;;;;;;;;;5068337;28;1176;-72
2022/10/04 06:05:20;;;;;;;;;;;;;;;;;;5068715;28;1295;-71
2022/10/04 06:07:47;;;;;;;;;;;;;;;;;;5068791;28;1977;-73
2022/10/04 06:10:33;;;;;;;;;;;;;;;;;;5084570;28;1391;-72
2022/10/04 06:12:59;;;;;;;;;;;;;;;;;;5065085;28;1135;-72
2022/10/04 06:15:35;;;;;;;;;;;;;;;;;;5068089;28;1363;-71
2022/10/04 06:18:08;;;;;;;;;;;;;;;;;;5068326;28;897;-72
2022/10/04 06:20:43;;;;;;;;;;;;;;;;;;5054219;28;1448;-73
2022/10/04 06:23:12;;;;;;;;;;;;;;;;;;5072121;28;1430;-73
2022/10/04 06:25:40;;;;;;;;;;;;;;;;;;5070296;28;1562;-73
2022/10/04 06:28:13;;;;;;;;;;;;;;;;;;5065079;28;1969;-73
2022/10/04 06:30:41;;;;;;;;;;;;;;;;;;5064349;28;1513;-73
2022/10/04 06:33:17;;;;;;;;;;;;;;;;;;5067070;28;1217;-73
2022/10/04 06:35:53;;;;;;;;;;;;;;;;;;5053783;28;1400;-74
2022/10/04 06:38:36;;;;;;;;;;;;;;;;;;5057153;28;1403;-73
2022/10/04 06:41:07;;;;;;;;;;;;;;;;;;5063095;28;1167;-73
2022/10/04 06:43:36;;;;;;;;;;;;;;;;;;5073172;28;969;-72
2022/10/04 06:46:05;;;;;;;;;;;;;;;;;;5073656;28;1283;-73
2022/10/04 06:48:48;;;;;;;;;;;;;;;;;;5048708;28;1975;-73
2022/10/04 06:51:17;;;;;;;;;;;;;;;;;;5067570;28;1367;-71
2022/10/04 06:53:46;;;;;;;;;;;;;;;;;;5078429;28;1206;-74
2022/10/04 06:56:24;;;;;;;;;;;;;;;;;;5063681;28;1482;-73
2022/10/04 06:59:09;;;;;;;;;;;;;;;;;;5089049;28;1134;-74
2022/10/04 07:01:36;;;;;;;;;;;;;;;;;;5072987;28;826;-72
2022/10/04 07:04:04;;;;;;;;;;;;;;;;;;5065279;28;1449;-70
2022/10/04 07:06:31;;;;;;;;;;;;;;;;;;5076400;28;1478;-73
2022/10/04 07:08:58;;;;;;;;;;;;;;;;;;5072982;28;1985;-73
2022/10/04 07:11:27;;;;;;;;;;;;;;;;;;5072757;28;956;-73
2022/10/04 07:13:55;;;;;;;;;;;;;;;;;;5073157;28;941;-74
2022/10/04 07:16:29;;;;;;;;;;;;;;;;;;5076158;28;1406;-73
2022/10/04 07:18:57;;;;;;;;;;;;;;;;;;5072934;28;1174;-72
2022/10/04 07:21:26;;;;;;;;;;;;;;;;;;5071350;28;1383;-72
2022/10/04 07:23:53;;;;;;;;;;;;;;;;;;5072940;28;1162;-73
2022/10/04 07:26:23;;;;;;;;;;;;;;;;;;5055523;28;1515;-72
2022/10/04 07:31:35;;;;;;;;;;;;;;;;;;5072519;28;981;-72
2022/10/04 07:34:02;;;;;;;;;;;;;;;;;;5072774;28;782;-72
2022/10/04 07:36:29;;;;;;;;;;;;;;;;;;5072748;28;1067;-72
2022/10/04 07:38:59;;;;;;;;;;;;;;;;;;5072873;28;1110;-73
2022/10/04 07:41:25;;;;;;;;;;;;;;;;;;5072207;28;953;-72
2022/10/04 07:43:54;;;;;;;;;;;;;;;;;;5072553;28;1286;-73
2022/10/04 07:46:23;;;;;;;;;;;;;;;;;;5072382;28;1380;-72
2022/10/04 07:48:49;;;;;;;;;;;;;;;;;;5071991;28;1915;-72
2022/10/04 07:51:18;;;;;;;;;;;;;;;;;;5072127;28;1060;-70
2022/10/04 07:53:45;;;;;;;;;;;;;;;;;;5072764;28;594;-72
2022/10/04 07:56:12;;;;;;;;;;;;;;;;;;5072289;28;1403;-72
2022/10/04 07:58:42;;;;;;;;;;;;;;;;;;5071929;28;1159;-73
2022/10/04 08:01:10;;;;;;;;;;;;;;;;;;5072186;28;973;-72
2022/10/04 08:03:41;;;;;;;;;;;;;;;;;;5071806;28;877;-72
2022/10/04 08:06:10;;;;;;;;;;;;;;;;;;5072306;28;1301;-72
2022/10/04 08:08:52;;;;;;;;;;;;;;;;;;5070562;28;2122;-72
2022/10/04 08:11:20;;;;;;;;;;;;;;;;;;5071638;28;1075;-72
2022/10/04 08:13:50;;;;;;;;;;;;;;;;;;5071896;28;1084;-72
2022/10/04 08:16:18;;;;;;;;;;;;;;;;;;5071833;28;1396;-72
2022/10/04 08:18:46;;;;;;;;;;;;;;;;;;5071768;28;869;-72
2022/10/04 08:21:14;;;;;;;;;;;;;;;;;;5071904;28;953;-72
2022/10/04 08:23:44;;;;;;;;;;;;;;;;;;5070381;28;1330;-73
2022/10/04 08:26:13;;;;;;;;;;;;;;;;;;5071841;28;1314;-71
2022/10/04 08:31:57;;;;;;;;;;;;;;;;;;5029067;28;1124;-72
2022/10/04 08:34:27;;;;;;;;;;;;;;;;;;5065805;28;1392;-72
2022/10/04 08:36:56;;;;;;;;;;;;;;;;;;5071694;28;1118;-71
2022/10/04 08:39:26;;;;;;;;;;;;;;;;;;5071490;28;1083;-72
2022/10/04 08:41:57;;;;;;;;;;;;;;;;;;5071086;28;1126;-72
2022/10/04 08:44:41;;;;;;;;;;;;;;;;;;5071532;28;1332;-72
2022/10/04 08:47:27;;;;;;;;;;;;;;;;;;5053595;28;873;-72
2022/10/04 08:50:08;;;;;;;;;;;;;;;;;;5071148;28;1975;-72
2022/10/04 08:52:44;;;;;;;;;;;;;;;;;;5070771;28;1273;-74
2022/10/04 08:55:33;;;;;;;;;;;;;;;;;;5070981;28;1281;-72
2022/10/04 09:00:26;;;;;;;;;;;;;;;;;;5022654;28;2007;-74
2022/10/04 09:03:11;;;;;;;;;;;;;;;;;;5030822;28;1079;-74
2022/10/04 09:05:45;;;;;;;;;;;;;;;;;;5031487;28;1032;-74
2022/10/04 09:08:30;;;;;;;;;;;;;;;;;;5031369;28;1914;-74
2022/10/04 09:10:58;;;;;;;;;;;;;;;;;;5000593;28;1124;-74
2022/10/04 09:13:30;;;;;;;;;;;;;;;;;;5030988;28;1068;-74
2022/10/04 09:15:58;;;;;;;;;;;;;;;;;;5031392;28;1025;-74
2022/10/04 09:18:29;;;;;;;;;;;;;;;;;;5031208;28;1344;-73
2022/10/04 09:20:58;;;;;;;;;;;;;;;;;;5031357;28;863;-74
2022/10/04 09:23:52;;;;;;;;;;;;;;;;;;5030917;28;819;-74
2022/10/04 09:26:20;;;;;;;;;;;;;;;;;;4984867;28;1110;-74
2022/10/04 09:28:59;;;;;;;;;;;;;;;;;;5030992;28;1910;-74
2022/10/04 09:31:29;;;;;;;;;;;;;;;;;;5030761;28;1119;-74
2022/10/04 09:34:02;;;;;;;;;;;;;;;;;;5031094;28;969;-73
2022/10/04 09:36:43;;;;;;;;;;;;;;;;;;5031166;28;1056;-73
2022/10/04 09:39:20;;;;;;;;;;;;;;;;;;5027613;28;1307;-74
2022/10/04 09:42:09;;;;;;;;;;;;;;;;;;5030649;28;1115;-74
2022/10/04 09:44:48;;;;;;;;;;;;;;;;;;5031051;28;953;-73
2022/10/04 09:47:30;;;;;;;;;;;;;;;;;;5031031;28;1097;-73
2022/10/04 09:50:16;;;;;;;;;;;;;;;;;;5030527;28;1910;-74
2022/10/04 09:52:43;;;;;;;;;;;;;;;;;;5030704;28;1116;-74
2022/10/04 09:55:15;;;;;;;;;;;;;;;;;;5033835;28;839;-74
2022/10/04 09:57:52;;;;;;;;;;;;;;;;;;5035057;28;1055;-74
2022/10/04 10:00:20;;;;;;;;;;;;;;;;;;5034653;28;946;-74
2022/10/04 10:02:54;;;;;;;;;;;;;;;;;;5034471;28;1119;-74
2022/10/04 10:05:26;;;;;;;;;;;;;;;;;;5034439;28;1096;-74
2022/10/04 10:07:54;;;;;;;;;;;;;;;;;;5033322;28;1343;-73
2022/10/04 10:15:58;;;;;;;;;;;;;;;;;;5034823;28;1033;-74
2022/10/04 10:18:26;;;;;;;;;;;;;;;;;;5034437;28;1424;-74
2022/10/04 10:21:03;;;;;;;;;;;;;;;;;;5050001;28;1123;-74
2022/10/04 10:23:38;;;;;;;;;;;;;;;;;;5035601;28;1112;-73
2022/10/04 10:26:34;;;;;;;;;;;;;;;;;;5038522;28;1072;-74
2022/10/04 10:29:09;;;;;;;;;;;;;;;;;;4995494;28;1980;-73
2022/10/04 10:31:43;;;;;;;;;;;;;;;;;;5021829;28;951;-74
2022/10/04 10:34:13;;;;;;;;;;;;;;;;;;5033056;28;1370;-74
2022/10/04 10:36:42;;;;;;;;;;;;;;;;;;5033034;28;1219;-75
2022/10/04 10:39:32;;;;;;;;;;;;;;;;;;5034181;28;1329;-74
2022/10/04 10:42:06;;;;;;;;;;;;;;;;;;5033856;28;1082;-74
2022/10/04 10:44:41;;;;;;;;;;;;;;;;;;5034122;28;1135;-74
2022/10/04 10:47:18;;;;;;;;;;;;;;;;;;5033881;28;1075;-75
2022/10/04 10:49:55;;;;;;;;;;;;;;;;;;5034057;28;1918;-75
2022/10/04 10:52:36;;;;;;;;;;;;;;;;;;5031868;28;1280;-75
2022/10/04 10:55:19;;;;;;;;;;;;;;;;;;5027282;28;1457;-74
2022/10/04 10:57:54;;;;;;;;;;;;;;;;;;5033924;28;839;-74
2022/10/04 11:00:22;;;;;;;;;;;;;;;;;;5033669;28;1131;-75
2022/10/04 11:03:22;;;;;;;;;;;;;;;;;;5032179;28;1116;-75
2022/10/04 11:06:06;;;;;;;;;;;;;;;;;;4985967;28;1421;-75
2022/10/04 11:08:50;;;;;;;;;;;;;;;;;;4991882;28;1424;-75
2022/10/04 11:11:21;;;;;;;;;;;;;;;;;;5019558;28;1092;-72
2022/10/04 11:13:52;;;;;;;;;;;;;;;;;;5033699;28;1193;-75
2022/10/04 11:16:40;;;;;;;;;;;;;;;;;;5033526;28;1076;-75
2022/10/04 11:19:27;;;;;;;;;;;;;;;;;;5033442;28;1400;-75
2022/10/04 11:22:15;;;;;;;;;;;;;;;;;;5030910;28;1449;-75
2022/10/04 11:25:03;;;;;;;;;;;;;;;;;;5027952;28;1159;-75
2022/10/04 11:27:33;;;;;;;;;;;;;;;;;;5030176;28;1426;-76
2022/10/04 11:30:03;;;;;;;;;;;;;;;;;;5002586;28;1914;-74
2022/10/04 11:32:36;;;;;;;;;;;;;;;;;;5032733;28;1150;-75
2022/10/04 11:35:17;;;;;;;;;;;;;;;;;;5033358;28;1096;-75
2022/10/04 11:37:48;;;;;;;;;;;;;;;;;;5014156;28;1626;-75
2022/10/04 11:40:19;;;;;;;;;;;;;;;;;;5005723;28;1492;-75
2022/10/04 11:42:51;;;;;;;;;;;;;;;;;;5028293;28;1156;-75
2022/10/04 11:45:35;;;;;;;;;;;;;;;;;;5033139;28;791;-75
2022/10/04 11:48:10;;;;;;;;;;;;;;;;;;5029755;28;1445;-75
2022/10/04 11:50:38;;;;;;;;;;;;;;;;;;5032307;28;1985;-75
2022/10/04 11:53:20;;;;;;;;;;;;;;;;;;5020926;28;1378;-75
2022/10/04 11:55:56;;;;;;;;;;;;;;;;;;5032348;28;1456;-75
2022/10/04 11:58:24;;;;;;;;;;;;;;;;;;5032424;28;1428;-75
2022/10/04 12:00:59;;;;;;;;;;;;;;;;;;5031087;28;1400;-74
2022/10/04 12:03:32;;;;;;;;;;;;;;;;;;5035800;28;1419;-75
2022/10/04 12:06:09;;;;;;;;;;;;;;;;;;5032318;28;1417;-76
2022/10/04 12:08:39;;;;;;;;;;;;;;;;;;5034293;28;1566;-73
2022/10/04 12:11:18;;;;;;;;;;;;;;;;;;5027037;28;1914;-74
2022/10/04 12:13:49;;;;;;;;;;;;;;;;;;5032492;28;1171;-75
2022/10/04 12:16:30;;;;;;;;;;;;;;;;;;5032113;28;1151;-75
2022/10/04 12:19:01;;;;;;;;;;;;;;;;;;5028960;28;1723;-74
2022/10/04 12:21:37;;;;;;;;;;;;;;;;;;5031936;28;1068;-75
2022/10/04 12:24:09;;;;;;;;;;;;;;;;;;5032373;28;1067;-75
2022/10/04 12:26:46;;;;;;;;;;;;;;;;;;5032269;28;973;-75
2022/10/04 12:29:39;;;;;;;;;;;;;;;;;;5032002;28;1970;-75
2022/10/04 12:32:06;;;;;;;;;;;;;;;;;;4985092;28;1064;-75
2022/10/04 12:34:37;;;;;;;;;;;;;;;;;;5032128;28;818;-75
2022/10/04 12:37:05;;;;;;;;;;;;;;;;;;5032113;28;1135;-75
2022/10/04 12:39:53;;;;;;;;;;;;;;;;;;5031963;28;1326;-75
2022/10/04 12:42:23;;;;;;;;;;;;;;;;;;5026444;28;1157;-75
2022/10/04 12:44:56;;;;;;;;;;;;;;;;;;5031932;28;1150;-75
2022/10/04 12:47:36;;;;;;;;;;;;;;;;;;5031754;28;853;-75
2022/10/04 12:50:05;;;;;;;;;;;;;;;;;;5031659;28;1906;-75
2022/10/04 12:52:33;;;;;;;;;;;;;;;;;;5031321;28;1071;-75
2022/10/04 12:55:00;;;;;;;;;;;;;;;;;;5031924;28;1131;-76
2022/10/04 12:57:30;;;;;;;;;;;;;;;;;;5031802;28;949;-76
2022/10/04 12:59:58;;;;;;;;;;;;;;;;;;5031585;28;1333;-76
2022/10/04 13:02:29;;;;;;;;;;;;;;;;;;5031156;28;1084;-75
2022/10/04 13:04:55;;;;;;;;;;;;;;;;;;5031821;28;1075;-75
2022/10/04 13:07:29;;;;;;;;;;;;;;;;;;5031394;28;930;-75
2022/10/04 13:09:57;;;;;;;;;;;;;;;;;;5032476;28;1910;-75
2022/10/04 13:12:27;;;;;;;;;;;;;;;;;;5031392;28;1056;-75
2022/10/04 13:15:00;;;;;;;;;;;;;;;;;;5031804;28;1225;-75
2022/10/04 13:17:29;;;;;;;;;;;;;;;;;;5031516;28;933;-75
2022/10/04 13:19:58;;;;;;;;;;;;;;;;;;5031356;28;1317;-76
2022/10/04 13:22:38;;;;;;;;;;;;;;;;;;5031190;28;949;-75
2022/10/04 13:25:11;;;;;;;;;;;;;;;;;;5031407;28;1087;-76
2022/10/04 13:27:40;;;;;;;;;;;;;;;;;;5031346;28;1025;-75
2022/10/04 13:30:06;;;;;;;;;;;;;;;;;;5034090;28;1911;-74
2022/10/04 13:32:35;;;;;;;;;;;;;;;;;;5035076;28;1264;-74
2022/10/04 13:35:02;;;;;;;;;;;;;;;;;;5035415;28;1096;-75
2022/10/04 13:37:31;;;;;;;;;;;;;;;;;;5035542;28;865;-74
2022/10/04 13:40:13;;;;;;;;;;;;;;;;;;5035301;28;1326;-75
2022/10/04 13:42:44;;;;;;;;;;;;;;;;;;5017028;28;1625;-74
2022/10/04 13:45:17;;;;;;;;;;;;;;;;;;5038882;28;1548;-76
2022/10/04 13:47:47;;;;;;;;;;;;;;;;;;5038037;28;1017;-75
2022/10/04 13:50:23;;;;;;;;;;;;;;;;;;5036055;28;1914;-75
2022/10/04 13:58:25;;;;;;;;;;;;;;;;;;5033483;28;1329;-75
2022/10/04 14:00:57;;;;;;;;;;;;;;;;;;5034756;28;1101;-75
2022/10/04 14:03:29;;;;;;;;;;;;;;;;;;5034519;28;740;-75
2022/10/04 14:06:13;;;;;;;;;;;;;;;;;;5034856;28;938;-75
2022/10/04 14:08:50;;;;;;;;;;;;;;;;;;5050264;28;1419;-75
2022/10/04 14:11:26;;;;;;;;;;;;;;;;;;5034352;28;1914;-73
2022/10/04 14:14:03;;;;;;;;;;;;;;;;;;5034771;28;1071;-75
2022/10/04 14:16:39;;;;;;;;;;;;;;;;;;5034782;28;890;-75
2022/10/04 14:19:12;;;;;;;;;;;;;;;;;;5034430;28;1391;-75
2022/10/04 14:21:49;;;;;;;;;;;;;;;;;;5034426;28;941;-75
2022/10/04 14:24:22;;;;;;;;;;;;;;;;;;5034582;28;802;-75
2022/10/04 14:27:01;;;;;;;;;;;;;;;;;;5034480;28;993;-74
2022/10/04 14:29:34;;;;;;;;;;;;;;;;;;5034166;28;1423;-75
2022/10/04 14:32:06;;;;;;;;;;;;;;;;;;5033917;28;1918;-76
2022/10/04 14:34:50;;;;;;;;;;;;;;;;;;5033247;28;1114;-75
2022/10/04 14:37:43;;;;;;;;;;;;;;;;;;5032310;28;1520;-75
2022/10/04 14:40:25;;;;;;;;;;;;;;;;;;4995373;28;1535;-74
2022/10/04 14:42:59;;;;;;;;;;;;;;;;;;5023517;28;1147;-75
2022/10/04 14:45:28;;;;;;;;;;;;;;;;;;5031978;28;1107;-75
2022/10/04 14:48:09;;;;;;;;;;;;;;;;;;5014170;28;1350;-72
2022/10/04 14:50:40;;;;;;;;;;;;;;;;;;5031730;28;1914;-74
2022/10/04 14:53:11;;;;;;;;;;;;;;;;;;5041279;28;1377;-74
2022/10/04 14:56:02;;;;;;;;;;;;;;;;;;5031091;28;1419;-74
2022/10/04 14:58:31;;;;;;;;;;;;;;;;;;5022923;28;1403;-75
2022/10/04 15:01:12;;;;;;;;;;;;;;;;;;5024385;28;1497;-75
2022/10/04 15:03:41;;;;;;;;;;;;;;;;;;5031422;28;1215;-75
2022/10/04 15:06:09;;;;;;;;;;;;;;;;;;5031214;28;1221;-75
2022/10/04 15:08:38;;;;;;;;;;;;;;;;;;5053944;28;1617;-75
2022/10/04 15:11:05;;;;;;;;;;;;;;;;;;5033697;28;1910;-75
2022/10/04 15:13:34;;;;;;;;;;;;;;;;;;5024405;28;1077;-74
2022/10/04 15:16:04;;;;;;;;;;;;;;;;;;5027318;28;1372;-74
2022/10/04 15:18:32;;;;;;;;;;;;;;;;;;5023951;28;1534;-75
2022/10/04 15:21:00;;;;;;;;;;;;;;;;;;5020862;28;1775;-74
2022/10/04 15:23:30;;;;;;;;;;;;;;;;;;5029302;28;1429;-74
2022/10/04 15:25:58;;;;;;;;;;;;;;;;;;5019510;28;1350;-74
2022/10/04 15:28:32;;;;;;;;;;;;;;;;;;5033417;28;1349;-74
2022/10/04 15:31:00;;;;;;;;;;;;;;;;;;5009806;28;1902;-74
2022/10/04 15:33:29;;;;;;;;;;;;;;;;;;5024188;28;1401;-75
2022/10/04 15:36:13;;;;;;;;;;;;;;;;;;5030580;28;1159;-75
2022/10/04 15:38:43;;;;;;;;;;;;;;;;;;5006079;28;1505;-74
2022/10/04 15:41:13;;;;;;;;;;;;;;;;;;5029784;28;1060;-74
2022/10/04 15:43:42;;;;;;;;;;;;;;;;;;5030722;28;1432;-74
2022/10/04 15:46:19;;;;;;;;;;;;;;;;;;5022335;28;1167;-75
2022/10/04 15:48:50;;;;;;;;;;;;;;;;;;5028898;28;1494;-75
2022/10/04 15:51:17;;;;;;;;;;;;;;;;;;5031847;28;1972;-74
2022/10/04 15:53:54;;;;;;;;;;;;;;;;;;5031655;28;1345;-75
2022/10/04 15:56:35;;;;;;;;;;;;;;;;;;5038908;28;1589;-74
2022/10/04 15:59:17;;;;;;;;;;;;;;;;;;5027052;28;1347;-75
2022/10/04 16:01:48;;;;;;;;;;;;;;;;;;5029672;28;1414;-75
2022/10/04 16:04:17;;;;;;;;;;;;;;;;;;5029145;28;1175;-75
2022/10/04 16:06:45;;;;;;;;;;;;;;;;;;5028607;28;1059;-75
2022/10/04 16:09:18;;;;;;;;;;;;;;;;;;5035599;28;1618;-75
2022/10/04 16:11:46;;;;;;;;;;;;;;;;;;5031088;28;1911;-75
2022/10/04 16:14:23;;;;;;;;;;;;;;;;;;5026518;28;1401;-77
2022/10/04 16:16:58;;;;;;;;;;;;;;;;;;5020501;28;1648;-77
2022/10/04 16:19:38;;;;;;;;;;;;;;;;;;5020344;28;1724;-76
2022/10/04 16:22:09;;;;;;;;;;;;;;;;;;5045901;22;1964;-77
2022/10/04 16:24:40;;;;;;;;;;;;;;;;;;5031516;28;1124;-77
2022/10/04 16:27:13;;;;;;;;;;;;;;;;;;5031825;28;872;-77
2022/10/04 16:29:39;;;;;;;;;;;;;;;;;;5032259;28;1089;-77
2022/10/04 16:32:11;;;;;;;;;;;;;;;;;;5031407;28;1915;-77
2022/10/04 16:34:40;;;;;;;;;;;;;;;;;;5032075;28;1013;-76
2022/10/04 16:37:12;;;;;;;;;;;;;;;;;;5032105;28;1083;-77
2022/10/04 16:42:24;;;;;;;;;;;;;;;;;;5030017;28;1437;-77
2022/10/04 16:44:50;;;;;;;;;;;;;;;;;;5031877;28;1119;-77
2022/10/04 16:47:19;;;;;;;;;;;;;;;;;;5031466;28;1005;-77
2022/10/04 16:49:48;;;;;;;;;;;;;;;;;;5031629;28;945;-76
2022/10/04 16:52:25;;;;;;;;;;;;;;;;;;5030885;28;1926;-77
2022/10/04 16:55:10;;;;;;;;;;;;;;;;;;5031706;28;1171;-76
2022/10/04 16:57:36;;;;;;;;;;;;;;;;;;5031340;28;1087;-76
2022/10/04 17:00:18;;;;;;;;;;;;;;;;;;5030283;28;1144;-76
2022/10/04 17:02:53;;;;;;;;;;;;;;;;;;5030508;28;1382;-76
2022/10/04 17:05:31;;;;;;;;;;;;;;;;;;5030982;28;1020;-76
2022/10/04 17:08:00;;;;;;;;;;;;;;;;;;5029963;28;1231;-76
2022/10/04 17:10:33;;;;;;;;;;;;;;;;;;5031104;28;921;-77
2022/10/04 17:13:00;;;;;;;;;;;;;;;;;;5030814;28;1975;-77
2022/10/04 17:15:33;;;;;;;;;;;;;;;;;;5031050;28;778;-77
2022/10/04 17:18:03;;;;;;;;;;;;;;;;;;5031417;28;972;-77
2022/10/04 17:20:30;;;;;;;;;;;;;;;;;;5031367;28;1068;-76
2022/10/04 17:23:04;;;;;;;;;;;;;;;;;;5030703;28;1355;-76
2022/10/04 17:25:33;;;;;;;;;;;;;;;;;;5029903;28;1056;-77
2022/10/04 17:28:01;;;;;;;;;;;;;;;;;;5031277;28;1099;-77
2022/10/04 17:30:28;;;;;;;;;;;;;;;;;;5029830;28;1052;-77
2022/10/04 17:32:58;;;;;;;;;;;;;;;;;;5030597;28;1922;-76
2022/10/04 17:35:45;;;;;;;;;;;;;;;;;;5031022;28;1072;-76
2022/10/04 17:38:13;;;;;;;;;;;;;;;;;;5031226;28;1087;-77
2022/10/04 17:40:42;;;;;;;;;;;;;;;;;;5031034;28;944;-77
2022/10/04 17:43:14;;;;;;;;;;;;;;;;;;5022017;28;1392;-77
2022/10/04 17:45:47;;;;;;;;;;;;;;;;;;5011203;28;890;-76
2022/10/04 17:56:30;;;;;;;;;;;;;;;;;;5011100;28;973;-77
2022/10/04 17:58:56;;;;;;;;;;;;;;;;;;5011323;28;933;-76
2022/10/04 18:01:26;;;;;;;;;;;;;;;;;;5010727;28;1296;-76
2022/10/04 18:03:55;;;;;;;;;;;;;;;;;;5011197;28;1143;-76
2022/10/04 18:06:27;;;;;;;;;;;;;;;;;;5010042;28;842;-76